createdAt,value
2023-03-27T00:00:16.607Z,-1.80
2023-03-27T00:02:48.860Z,-1.80
2023-03-27T00:05:20.615Z,-1.80
2023-03-27T00:07:49.639Z,-1.80
2023-03-27T00:10:18.367Z,-1.90
2023-03-27T00:12:46.990Z,-1.90
2023-03-27T00:15:17.464Z,-1.90
2023-03-27T00:17:49.740Z,-1.90
2023-03-27T00:20:21.880Z,-1.90
2023-03-27T00:22:55.902Z,-1.90
2023-03-27T00:25:26.590Z,-2.00
2023-03-27T00:27:56.862Z,-1.90
2023-03-27T00:30:26.248Z,-2.00
2023-03-27T00:32:56.579Z,-2.00
2023-03-27T00:35:26.577Z,-2.00
2023-03-27T00:37:56.066Z,-2.00
2023-03-27T00:40:24.471Z,-2.00
2023-03-27T00:42:57.742Z,-2.00
2023-03-27T00:45:30.187Z,-2.00
2023-03-27T00:48:02.406Z,-2.10
2023-03-27T00:50:36.204Z,-2.10
2023-03-27T00:53:09.622Z,-2.10
2023-03-27T00:55:39.541Z,-2.10
2023-03-27T00:58:12.635Z,-2.20
2023-03-27T01:00:41.205Z,-2.20
2023-03-27T01:03:12.496Z,-2.10
2023-03-27T01:05:41.382Z,-2.20
2023-03-27T01:08:11.698Z,-2.20
2023-03-27T01:10:50.687Z,-2.30
2023-03-27T01:13:43.495Z,-2.20
2023-03-27T01:16:17.546Z,-2.20
2023-03-27T01:18:58.259Z,-2.30
2023-03-27T01:21:54.838Z,-2.30
2023-03-27T01:24:58.886Z,-2.30
2023-03-27T01:27:44.291Z,-2.20
2023-03-27T01:30:19.592Z,-2.20
2023-03-27T01:33:18.430Z,-2.20
2023-03-27T01:36:16.649Z,-2.20
2023-03-27T01:39:17.285Z,-2.20
2023-03-27T01:41:54.610Z,-2.20
2023-03-27T01:44:36.441Z,-2.20
2023-03-27T01:47:23.199Z,-2.20
2023-03-27T01:49:57.061Z,-2.20
2023-03-27T01:52:29.496Z,-2.20
2023-03-27T01:55:05.135Z,-2.20
2023-03-27T01:57:48.784Z,-2.20
2023-03-27T02:00:22.435Z,-2.20
2023-03-27T02:02:55.255Z,-2.10
2023-03-27T02:05:29.750Z,-2.10
2023-03-27T02:08:04.041Z,-2.10
2023-03-27T02:10:37.549Z,-2.10
2023-03-27T02:13:11.804Z,-2.10
2023-03-27T02:15:44.578Z,-2.10
2023-03-27T02:18:19.221Z,-2.10
2023-03-27T02:20:48.554Z,-2.10
2023-03-27T02:23:16.791Z,-2.10
2023-03-27T02:25:45.702Z,-2.20
2023-03-27T02:28:52.614Z,-2.20
2023-03-27T02:31:35.229Z,-2.20
2023-03-27T02:34:21.757Z,-2.20
2023-03-27T02:36:56.271Z,-2.30
2023-03-27T02:39:34.233Z,-2.30
2023-03-27T02:42:08.520Z,-2.30
2023-03-27T02:44:46.500Z,-2.30
2023-03-27T02:47:20.689Z,-2.40
2023-03-27T02:49:55.503Z,-2.40
2023-03-27T02:52:27.775Z,-2.30
2023-03-27T02:55:06.920Z,-2.40
2023-03-27T02:57:39.943Z,-2.40
2023-03-27T03:00:18.998Z,-2.40
2023-03-27T03:02:49.290Z,-2.40
2023-03-27T03:05:22.246Z,-2.40
2023-03-27T03:07:51.172Z,-2.40
2023-03-27T03:10:20.099Z,-2.40
2023-03-27T03:12:48.502Z,-2.40
2023-03-27T03:15:18.662Z,-2.40
2023-03-27T03:17:47.190Z,-2.40
2023-03-27T03:20:17.111Z,-2.40
2023-03-27T03:22:45.684Z,-2.40
2023-03-27T03:25:14.695Z,-2.50
2023-03-27T03:27:44.339Z,-2.50
2023-03-27T03:30:16.537Z,-2.50
2023-03-27T03:32:47.531Z,-2.50
2023-03-27T03:35:15.909Z,-2.50
2023-03-27T03:37:51.244Z,-2.50
2023-03-27T03:40:20.687Z,-2.50
2023-03-27T03:42:50.570Z,-2.50
2023-03-27T03:45:20.018Z,-2.50
2023-03-27T03:47:49.949Z,-2.60
2023-03-27T03:50:18.303Z,-2.60
2023-03-27T03:52:47.641Z,-2.60
2023-03-27T03:55:16.267Z,-2.60
2023-03-27T03:57:48.503Z,-2.60
2023-03-27T04:00:18.852Z,-2.60
2023-03-27T04:02:50.474Z,-2.60
2023-03-27T04:05:20.659Z,-2.60
2023-03-27T04:07:49.891Z,-2.60
2023-03-27T04:10:18.988Z,-2.60
2023-03-27T04:12:51.292Z,-2.60
2023-03-27T04:15:20.092Z,-2.60
2023-03-27T04:17:49.053Z,-2.60
2023-03-27T04:20:18.384Z,-2.60
2023-03-27T04:22:51.402Z,-2.60
2023-03-27T04:25:23.303Z,-2.60
2023-03-27T04:27:52.610Z,-2.60
2023-03-27T04:30:23.400Z,-2.70
2023-03-27T04:32:53.006Z,-2.70
2023-03-27T04:35:23.466Z,-2.70
2023-03-27T04:37:53.331Z,-2.70
2023-03-27T04:40:21.844Z,-2.70
2023-03-27T04:42:50.433Z,-2.70
2023-03-27T04:45:22.546Z,-2.80
2023-03-27T04:47:51.361Z,-2.80
2023-03-27T04:50:19.683Z,-2.80
2023-03-27T04:52:50.293Z,-2.90
2023-03-27T04:55:20.650Z,-2.80
2023-03-27T04:57:49.182Z,-2.80
2023-03-27T05:00:19.578Z,-2.80
2023-03-27T05:02:48.704Z,-2.90
2023-03-27T05:05:18.348Z,-2.90
2023-03-27T05:07:47.262Z,-3.00
2023-03-27T05:10:21.901Z,-2.90
2023-03-27T05:12:53.034Z,-2.90
2023-03-27T05:15:22.653Z,-2.90
2023-03-27T05:17:54.414Z,-3.00
2023-03-27T05:20:23.306Z,-3.00
2023-03-27T05:22:54.644Z,-3.00
2023-03-27T05:25:23.248Z,-2.90
2023-03-27T05:27:54.176Z,-2.90
2023-03-27T05:30:24.477Z,-2.90
2023-03-27T05:32:53.861Z,-2.90
2023-03-27T05:35:24.450Z,-2.90
2023-03-27T05:37:54.166Z,-2.90
2023-03-27T05:40:25.380Z,-2.80
2023-03-27T05:42:56.131Z,-2.80
2023-03-27T05:45:25.201Z,-2.80
2023-03-27T05:47:55.117Z,-2.80
2023-03-27T05:50:26.482Z,-2.80
2023-03-27T05:52:58.562Z,-2.70
2023-03-27T05:55:28.033Z,-2.80
2023-03-27T05:57:57.927Z,-2.70
2023-03-27T06:00:27.928Z,-2.70
2023-03-27T06:02:57.847Z,-2.60
2023-03-27T06:05:29.777Z,-2.70
2023-03-27T06:07:59.449Z,-2.60
2023-03-27T06:10:30.140Z,-2.60
2023-03-27T06:13:05.071Z,-2.60
2023-03-27T06:15:34.050Z,-2.60
2023-03-27T06:18:02.956Z,-2.60
2023-03-27T06:20:31.854Z,-2.60
2023-03-27T06:23:01.977Z,-2.60
2023-03-27T06:25:33.701Z,-2.50
2023-03-27T06:28:04.670Z,-2.60
2023-03-27T06:30:33.836Z,-2.60
2023-03-27T06:33:03.426Z,-2.50
2023-03-27T06:35:33.339Z,-2.50
2023-03-27T06:38:03.385Z,-2.50
2023-03-27T06:40:35.170Z,-2.50
2023-03-27T06:43:07.220Z,-2.50
2023-03-27T06:45:37.691Z,-2.50
2023-03-27T06:48:18.699Z,-2.50
2023-03-27T06:50:50.734Z,-2.50
2023-03-27T06:55:51.724Z,-2.40
2023-03-27T06:58:22.021Z,-2.50
2023-03-27T07:00:51.244Z,-2.50
2023-03-27T07:03:23.463Z,-2.50
2023-03-27T07:05:51.706Z,-2.50
2023-03-27T07:08:24.718Z,-2.40
2023-03-27T07:11:07.954Z,-2.40
2023-03-27T07:13:41.485Z,-2.30
2023-03-27T07:16:12.183Z,-2.40
2023-03-27T07:18:41.943Z,-2.20
2023-03-27T07:21:10.605Z,-2.10
2023-03-27T07:23:39.084Z,-2.10
2023-03-27T07:26:08.323Z,-2.10
2023-03-27T07:28:38.487Z,-2.10
2023-03-27T07:31:32.565Z,-2.00
2023-03-27T07:34:03.166Z,-2.10
2023-03-27T07:36:31.802Z,-2.10
2023-03-27T07:39:00.560Z,-2.10
2023-03-27T07:41:30.256Z,-2.10
2023-03-27T07:43:58.956Z,-2.10
2023-03-27T07:46:28.539Z,-2.10
2023-03-27T07:48:57.573Z,-2.10
2023-03-27T07:51:25.930Z,-2.00
2023-03-27T07:53:58.516Z,-2.10
2023-03-27T07:56:27.198Z,-2.00
2023-03-27T07:58:55.521Z,-2.00
2023-03-27T08:01:24.036Z,-2.00
2023-03-27T08:03:54.707Z,-2.00
2023-03-27T08:06:23.217Z,-2.00
2023-03-27T08:08:51.993Z,-1.90
2023-03-27T08:11:30.284Z,-1.90
2023-03-27T08:13:59.697Z,-1.80
2023-03-27T08:16:30.054Z,-1.90
2023-03-27T08:19:00.874Z,-1.90
2023-03-27T08:21:33.377Z,-1.80
2023-03-27T08:24:02.813Z,-1.70
2023-03-27T08:26:31.741Z,-1.70
2023-03-27T08:29:00.788Z,-1.60
2023-03-27T08:31:31.184Z,-1.70
2023-03-27T08:34:01.206Z,-1.80
2023-03-27T08:36:29.458Z,-1.80
2023-03-27T08:38:58.844Z,-1.60
2023-03-27T08:41:33.112Z,-1.60
2023-03-27T08:44:06.343Z,-1.60
2023-03-27T08:46:41.796Z,-1.50
2023-03-27T08:49:17.670Z,-1.40
2023-03-27T08:51:50.444Z,-1.50
2023-03-27T08:54:21.646Z,-1.40
2023-03-27T08:56:50.628Z,-1.40
2023-03-27T08:59:21.308Z,-1.50
2023-03-27T09:01:55.804Z,-1.50
2023-03-27T09:04:37.534Z,-1.40
2023-03-27T09:07:10.668Z,-1.50
2023-03-27T09:09:53.150Z,-1.40
2023-03-27T09:12:37.293Z,-1.40
2023-03-27T09:15:12.814Z,-1.40
2023-03-27T09:17:45.271Z,-1.20
2023-03-27T09:20:20.504Z,-1.20
2023-03-27T09:22:53.698Z,-1.30
2023-03-27T09:25:27.641Z,-1.40
2023-03-27T09:27:57.105Z,-1.50
2023-03-27T09:30:28.031Z,-1.60
2023-03-27T09:33:00.817Z,-1.50
2023-03-27T09:35:32.200Z,-1.40
2023-03-27T09:38:04.058Z,-1.40
2023-03-27T09:40:41.207Z,-1.30
2023-03-27T09:43:15.255Z,-1.50
2023-03-27T09:45:45.238Z,-1.40
2023-03-27T09:48:21.898Z,-1.40
2023-03-27T09:50:51.468Z,-1.50
2023-03-27T09:53:23.086Z,-1.40
2023-03-27T09:55:55.087Z,-1.50
2023-03-27T09:58:32.461Z,-1.50
2023-03-27T10:01:16.787Z,-1.40
2023-03-27T10:03:53.227Z,-1.60
2023-03-27T10:06:31.316Z,-1.60
2023-03-27T10:09:02.260Z,-1.70
2023-03-27T10:11:33.801Z,-1.70
2023-03-27T10:14:11.036Z,-1.60
2023-03-27T10:16:42.392Z,-1.60
2023-03-27T10:19:22.417Z,-1.60
2023-03-27T10:21:52.724Z,-1.70
2023-03-27T10:24:27.462Z,-1.70
2023-03-27T10:26:56.805Z,-1.60
2023-03-27T10:29:28.066Z,-1.60
2023-03-27T10:31:58.766Z,-1.60
2023-03-27T10:34:34.008Z,-1.50
2023-03-27T10:37:05.404Z,-1.40
2023-03-27T10:39:36.515Z,-1.60
2023-03-27T10:42:09.537Z,-1.60
2023-03-27T10:44:39.469Z,-1.60
2023-03-27T10:47:18.863Z,-1.60
2023-03-27T10:49:53.872Z,-1.50
2023-03-27T10:52:30.135Z,-1.50
2023-03-27T10:55:12.772Z,-1.50
2023-03-27T10:57:43.425Z,-1.60
2023-03-27T11:00:18.497Z,-1.50
2023-03-27T11:02:51.856Z,-1.50
2023-03-27T11:05:25.195Z,-1.50
2023-03-27T11:08:00.547Z,-1.60
2023-03-27T11:10:35.052Z,-1.70
2023-03-27T11:13:10.212Z,-1.70
2023-03-27T11:15:42.257Z,-1.70
2023-03-27T11:18:16.556Z,-1.70
2023-03-27T11:20:50.762Z,-1.80
2023-03-27T11:23:28.824Z,-1.80
2023-03-27T11:26:00.276Z,-1.70
2023-03-27T11:28:39.847Z,-1.70
2023-03-27T11:31:14.745Z,-1.70
2023-03-27T11:33:48.473Z,-1.80
2023-03-27T11:36:37.877Z,-1.90
2023-03-27T11:39:15.744Z,-1.80
2023-03-27T11:41:53.269Z,-1.80
2023-03-27T11:44:22.026Z,-1.90
2023-03-27T11:47:02.796Z,-1.90
2023-03-27T11:49:52.936Z,-1.90
2023-03-27T11:52:33.391Z,-1.80
2023-03-27T11:55:16.018Z,-1.90
2023-03-27T11:57:59.818Z,-1.90
2023-03-27T12:00:36.508Z,-1.90
2023-03-27T12:03:40.738Z,-1.80
2023-03-27T12:06:15.783Z,-1.70
2023-03-27T12:08:52.944Z,-1.70
2023-03-27T12:11:25.538Z,-1.50
2023-03-27T12:14:18.444Z,-1.70
2023-03-27T12:17:19.742Z,-1.80
2023-03-27T12:20:19.821Z,-1.60
2023-03-27T12:22:57.861Z,-1.60
2023-03-27T12:25:57.355Z,-1.60
2023-03-27T12:28:42.620Z,-1.50
2023-03-27T12:31:28.728Z,-1.50
2023-03-27T12:34:03.029Z,-1.70
2023-03-27T12:36:35.848Z,-1.60
2023-03-27T12:39:16.286Z,-1.70
2023-03-27T12:41:46.323Z,-1.60
2023-03-27T12:44:20.065Z,-1.70
2023-03-27T12:47:09.062Z,-1.50
2023-03-27T12:49:48.366Z,-1.60
2023-03-27T12:52:18.787Z,-1.50
2023-03-27T12:55:09.505Z,-1.50
2023-03-27T12:57:44.432Z,-1.60
2023-03-27T13:00:25.733Z,-1.50
2023-03-27T13:03:23.860Z,-1.60
2023-03-27T13:06:13.513Z,-1.60
2023-03-27T13:09:12.405Z,-1.60
2023-03-27T13:11:54.932Z,-1.80
2023-03-27T13:14:44.172Z,-1.70
2023-03-27T13:17:33.811Z,-1.70
2023-03-27T13:20:10.913Z,-1.60
2023-03-27T13:22:57.120Z,-1.50
2023-03-27T13:25:45.909Z,-1.50
2023-03-27T13:28:31.379Z,-1.60
2023-03-27T13:31:01.051Z,-1.60
2023-03-27T13:33:44.936Z,-1.70
2023-03-27T13:36:17.825Z,-1.70
2023-03-27T13:39:21.912Z,-1.80
2023-03-27T13:42:01.638Z,-1.70
2023-03-27T13:44:47.418Z,-1.70
2023-03-27T13:47:46.733Z,-1.70
2023-03-27T13:50:33.202Z,-1.70
2023-03-27T13:53:29.190Z,-1.70
2023-03-27T13:56:18.716Z,-1.80
2023-03-27T13:59:06.179Z,-1.70
2023-03-27T14:01:47.771Z,-1.70
2023-03-27T14:04:39.345Z,-1.80
2023-03-27T14:07:39.293Z,-1.80
2023-03-27T14:10:30.151Z,-1.80
2023-03-27T14:13:14.048Z,-1.80
2023-03-27T14:16:12.692Z,-1.90
2023-03-27T14:18:55.974Z,-1.80
2023-03-27T14:21:37.824Z,-1.90
2023-03-27T14:24:19.462Z,-1.80
2023-03-27T14:26:48.674Z,-2.00
2023-03-27T14:29:17.737Z,-2.00
2023-03-27T14:31:46.181Z,-2.10
2023-03-27T14:34:22.485Z,-2.10
2023-03-27T14:36:52.482Z,-2.10
2023-03-27T14:39:24.447Z,-2.10
2023-03-27T14:41:55.969Z,-2.10
2023-03-27T14:44:26.059Z,-2.10
2023-03-27T14:47:00.355Z,-2.10
2023-03-27T14:49:37.022Z,-2.10
2023-03-27T14:52:07.924Z,-2.20
2023-03-27T14:54:52.311Z,-2.20
2023-03-27T14:57:25.932Z,-2.20
2023-03-27T14:59:55.638Z,-2.20
2023-03-27T15:02:29.139Z,-2.20
2023-03-27T15:04:58.361Z,-2.10
2023-03-27T15:07:30.822Z,-2.10
2023-03-27T15:10:20.824Z,-2.10
2023-03-27T15:12:50.067Z,-2.10
2023-03-27T15:15:38.952Z,-2.00
2023-03-27T15:18:13.472Z,-1.90
2023-03-27T15:20:42.504Z,-1.80
2023-03-27T15:23:19.149Z,-1.80
2023-03-27T15:25:54.118Z,-1.70
2023-03-27T15:28:28.464Z,-1.70
2023-03-27T15:30:59.236Z,-1.60
2023-03-27T15:33:34.654Z,-1.60
2023-03-27T15:36:06.543Z,-1.70
2023-03-27T15:38:37.476Z,-1.70
2023-03-27T15:41:36.464Z,-1.70
2023-03-27T15:44:11.238Z,-1.70
2023-03-27T15:46:50.055Z,-1.70
2023-03-27T15:49:29.653Z,-1.80
2023-03-27T15:51:59.800Z,-1.80
2023-03-27T15:54:34.120Z,-1.80
2023-03-27T15:57:10.169Z,-1.80
2023-03-27T15:59:52.797Z,-1.80
2023-03-27T16:02:22.831Z,-1.80
2023-03-27T16:04:54.385Z,-1.90
2023-03-27T16:07:26.779Z,-1.90
2023-03-27T16:09:57.265Z,-2.00
2023-03-27T16:12:30.951Z,-2.00
2023-03-27T16:15:06.507Z,-2.00
2023-03-27T16:17:44.780Z,-2.00
2023-03-27T16:20:41.036Z,-2.00
2023-03-27T16:23:10.273Z,-2.00
2023-03-27T16:25:38.923Z,-1.90
2023-03-27T16:28:10.412Z,-1.90
2023-03-27T16:30:41.924Z,-1.90
2023-03-27T16:33:16.044Z,-1.90
2023-03-27T16:35:45.647Z,-1.90
2023-03-27T16:38:14.401Z,-1.90
2023-03-27T16:40:43.501Z,-2.00
2023-03-27T16:43:12.159Z,-1.90
2023-03-27T16:45:42.258Z,-2.00
2023-03-27T16:48:13.537Z,-2.10
2023-03-27T16:50:42.070Z,-2.10
2023-03-27T16:53:10.203Z,-2.10
2023-03-27T16:55:38.434Z,-2.10
2023-03-27T16:58:06.746Z,-2.20
2023-03-27T17:00:35.087Z,-2.10
2023-03-27T17:03:05.277Z,-2.10
2023-03-27T17:05:34.483Z,-2.20
2023-03-27T17:08:05.314Z,-2.20
2023-03-27T17:10:35.380Z,-2.20
2023-03-27T17:13:03.668Z,-2.20
2023-03-27T17:15:31.891Z,-2.20
2023-03-27T17:18:00.797Z,-2.10
2023-03-27T17:20:30.644Z,-2.10
2023-03-27T17:22:58.938Z,-2.20
2023-03-27T17:25:30.847Z,-2.10
2023-03-27T17:27:59.018Z,-2.20
2023-03-27T17:30:37.263Z,-2.20
2023-03-27T17:33:06.733Z,-2.20
2023-03-27T17:35:38.594Z,-2.10
2023-03-27T17:38:07.803Z,-2.10
2023-03-27T17:40:36.296Z,-2.10
2023-03-27T17:43:04.527Z,-2.10
2023-03-27T17:45:32.790Z,-2.10
2023-03-27T17:48:01.155Z,-2.10
2023-03-27T17:50:29.478Z,-2.20
2023-03-27T17:52:59.294Z,-2.20
2023-03-27T17:55:27.491Z,-2.20
2023-03-27T17:58:08.222Z,-2.20
2023-03-27T18:00:37.878Z,-2.30
2023-03-27T18:03:07.389Z,-2.30
2023-03-27T18:05:37.646Z,-2.30
2023-03-27T18:08:08.669Z,-2.30
2023-03-27T18:10:37.105Z,-2.40
2023-03-27T18:13:05.571Z,-2.40
2023-03-27T18:15:33.846Z,-2.40
2023-03-27T18:18:01.968Z,-2.40
2023-03-27T18:20:30.342Z,-2.40
2023-03-27T18:22:59.039Z,-2.40
2023-03-27T18:25:28.649Z,-2.40
2023-03-27T18:27:56.930Z,-2.40
2023-03-27T18:30:25.588Z,-2.40
2023-03-27T18:32:53.874Z,-2.50
2023-03-27T18:35:22.174Z,-2.50
2023-03-27T18:37:50.622Z,-2.50
2023-03-27T18:40:19.684Z,-2.50
2023-03-27T18:42:49.453Z,-2.50
2023-03-27T18:45:18.746Z,-2.50
2023-03-27T18:47:47.461Z,-2.50
2023-03-27T18:50:16.222Z,-2.50
2023-03-27T18:52:45.386Z,-2.50
2023-03-27T18:55:13.839Z,-2.50
2023-03-27T18:57:41.944Z,-2.50
2023-03-27T19:00:18.341Z,-2.50
2023-03-27T19:02:46.955Z,-2.50
2023-03-27T19:05:16.246Z,-2.50
2023-03-27T19:07:45.055Z,-2.50
2023-03-27T19:10:14.083Z,-2.50
2023-03-27T19:12:42.381Z,-2.50
2023-03-27T19:15:19.877Z,-2.50
2023-03-27T19:17:48.715Z,-2.60
2023-03-27T19:20:17.081Z,-2.60
2023-03-27T19:22:45.424Z,-2.60
2023-03-27T19:25:14.638Z,-2.60
2023-03-27T19:27:43.441Z,-2.60
2023-03-27T19:30:15.341Z,-2.60
2023-03-27T19:32:43.645Z,-2.50
2023-03-27T19:35:12.423Z,-2.60
2023-03-27T19:37:40.686Z,-2.50
2023-03-27T19:40:10.615Z,-2.50
2023-03-27T19:42:39.115Z,-2.60
2023-03-27T19:45:08.762Z,-2.60
2023-03-27T19:47:38.506Z,-2.60
2023-03-27T19:50:08.940Z,-2.50
2023-03-27T19:52:37.584Z,-2.60
2023-03-27T19:55:07.012Z,-2.50
2023-03-27T19:57:35.587Z,-2.60
2023-03-27T20:00:09.481Z,-2.60
2023-03-27T20:02:39.711Z,-2.50
2023-03-27T20:05:08.963Z,-2.60
2023-03-27T20:07:37.128Z,-2.60
2023-03-27T20:10:06.929Z,-2.60
2023-03-27T20:12:35.284Z,-2.60
2023-03-27T20:17:36.256Z,-2.60
2023-03-27T20:20:10.325Z,-2.60
2023-03-27T20:22:50.075Z,-2.60
2023-03-27T20:25:23.073Z,-2.60
2023-03-27T20:27:51.556Z,-2.60
2023-03-27T20:30:19.900Z,-2.60
2023-03-27T20:32:48.197Z,-2.60
2023-03-27T20:35:24.356Z,-2.60
2023-03-27T20:37:57.852Z,-2.50
2023-03-27T20:40:26.844Z,-2.60
2023-03-27T20:43:06.359Z,-2.50
2023-03-27T20:45:34.806Z,-2.60
2023-03-27T20:48:04.378Z,-2.60
2023-03-27T20:50:35.285Z,-2.60
2023-03-27T20:53:04.956Z,-2.60
2023-03-27T20:55:37.556Z,-2.60
2023-03-27T20:58:10.360Z,-2.60
2023-03-27T21:00:38.745Z,-2.60
2023-03-27T21:03:07.158Z,-2.60
2023-03-27T21:05:38.531Z,-2.60
2023-03-27T21:08:07.628Z,-2.60
2023-03-27T21:10:36.623Z,-2.60
2023-03-27T21:13:06.059Z,-2.60
2023-03-27T21:15:34.556Z,-2.60
2023-03-27T21:18:03.101Z,-2.60
2023-03-27T21:20:33.875Z,-2.60
2023-03-27T21:23:05.918Z,-2.60
2023-03-27T21:25:35.841Z,-2.60
2023-03-27T21:28:04.137Z,-2.60
2023-03-27T21:30:46.519Z,-2.60
2023-03-27T21:33:17.084Z,-2.60
2023-03-27T21:35:48.031Z,-2.60
2023-03-27T21:38:19.328Z,-2.60
2023-03-27T21:40:48.116Z,-2.50
2023-03-27T21:43:16.617Z,-2.50
2023-03-27T21:45:46.797Z,-2.50
2023-03-27T21:48:15.125Z,-2.50
2023-03-27T21:50:43.405Z,-2.50
2023-03-27T21:53:12.305Z,-2.50
2023-03-27T21:55:42.548Z,-2.50
2023-03-27T21:58:11.193Z,-2.60
2023-03-27T22:00:39.584Z,-2.60
2023-03-27T22:03:07.985Z,-2.60
2023-03-27T22:05:37.818Z,-2.60
2023-03-27T22:08:06.836Z,-2.60
2023-03-27T22:10:36.297Z,-2.60
2023-03-27T22:13:06.653Z,-2.60
2023-03-27T22:15:35.175Z,-2.60
2023-03-27T22:18:03.547Z,-2.60
2023-03-27T22:20:32.009Z,-2.60
2023-03-27T22:23:00.248Z,-2.60
2023-03-27T22:25:28.820Z,-2.60
2023-03-27T22:27:57.029Z,-2.60
2023-03-27T22:30:27.489Z,-2.60
2023-03-27T22:32:55.977Z,-2.70
2023-03-27T22:35:24.403Z,-2.70
2023-03-27T22:37:52.672Z,-2.70
2023-03-27T22:40:21.080Z,-2.70
2023-03-27T22:42:49.350Z,-2.70
2023-03-27T22:45:17.742Z,-2.70
2023-03-27T22:47:47.373Z,-2.70
2023-03-27T22:50:16.053Z,-2.70
2023-03-27T22:52:44.401Z,-2.70
2023-03-27T22:55:12.672Z,-2.70
2023-03-27T22:57:40.986Z,-2.70
2023-03-27T23:00:10.330Z,-2.70
2023-03-27T23:02:38.656Z,-2.70
2023-03-27T23:05:09.225Z,-2.70
2023-03-27T23:07:37.366Z,-2.60
2023-03-27T23:10:06.180Z,-2.60
2023-03-27T23:12:34.539Z,-2.60
2023-03-27T23:15:02.831Z,-2.60
2023-03-27T23:17:31.173Z,-2.60
2023-03-27T23:19:59.580Z,-2.50
2023-03-27T23:22:29.415Z,-2.50
2023-03-27T23:24:57.657Z,-2.50
2023-03-27T23:27:26.247Z,-2.50
2023-03-27T23:29:54.552Z,-2.50
2023-03-27T23:32:22.793Z,-2.50
2023-03-27T23:34:51.846Z,-2.50
2023-03-27T23:37:20.131Z,-2.50
2023-03-27T23:39:49.873Z,-2.50
2023-03-27T23:42:18.069Z,-2.50
2023-03-27T23:44:46.758Z,-2.50
2023-03-27T23:47:14.980Z,-2.50
2023-03-27T23:49:43.490Z,-2.60
2023-03-27T23:52:12.044Z,-2.60
2023-03-27T23:54:40.258Z,-2.60
2023-03-27T23:57:10.047Z,-2.60
2023-03-27T23:59:38.814Z,-2.60
